createdAt,value
2023-05-09T00:03:16.282Z,4.20
2023-05-09T00:08:23.370Z,4.24
2023-05-09T00:13:30.737Z,4.30
2023-05-09T00:18:38.077Z,4.01
2023-05-09T00:23:45.399Z,3.70
2023-05-09T00:28:52.712Z,4.39
2023-05-09T00:33:59.990Z,4.11
2023-05-09T00:39:07.129Z,4.17
2023-05-09T00:44:14.506Z,4.37
2023-05-09T00:49:21.685Z,4.02
2023-05-09T00:54:29.150Z,4.21
2023-05-09T00:59:36.465Z,4.33
2023-05-09T01:04:43.834Z,4.59
2023-05-09T01:09:51.090Z,4.16
2023-05-09T01:14:58.525Z,3.92
2023-05-09T01:20:05.814Z,3.98
2023-05-09T01:25:13.489Z,4.64
2023-05-09T01:30:20.621Z,4.01
2023-05-09T01:35:27.976Z,5.12
2023-05-09T01:40:35.301Z,4.51
2023-05-09T01:45:42.659Z,4.07
2023-05-09T01:50:49.863Z,4.11
2023-05-09T01:55:57.237Z,4.21
2023-05-09T02:01:04.456Z,4.01
2023-05-09T02:06:11.818Z,4.27
2023-05-09T02:11:19.107Z,4.61
2023-05-09T02:16:26.471Z,4.59
2023-05-09T02:21:33.788Z,4.19
2023-05-09T02:26:41.288Z,3.98
2023-05-09T02:31:48.647Z,4.34
2023-05-09T02:36:56.075Z,3.98
2023-05-09T02:42:03.334Z,4.33
2023-05-09T02:47:10.677Z,4.81
2023-05-09T02:52:17.939Z,4.38
2023-05-09T02:57:25.305Z,4.37
2023-05-09T03:02:32.728Z,4.21
2023-05-09T03:07:39.939Z,4.65
2023-05-09T03:12:47.129Z,4.32
2023-05-09T03:17:54.565Z,4.82
2023-05-09T03:23:01.754Z,4.48
2023-05-09T03:28:09.087Z,4.94
2023-05-09T03:33:16.343Z,4.95
2023-05-09T03:38:23.727Z,5.22
2023-05-09T03:43:31.038Z,4.58
2023-05-09T03:48:38.481Z,4.45
2023-05-09T03:53:45.715Z,4.59
2023-05-09T03:58:53.178Z,4.88
2023-05-09T04:04:00.429Z,4.73
2023-05-09T04:09:07.634Z,4.35
2023-05-09T04:14:14.826Z,4.82
2023-05-09T04:19:22.302Z,4.44
2023-05-09T04:24:29.528Z,4.55
2023-05-09T04:29:36.862Z,4.63
2023-05-09T04:34:44.081Z,4.45
2023-05-09T04:39:51.424Z,4.71
2023-05-09T04:44:58.740Z,4.36
2023-05-09T04:50:06.072Z,4.82
2023-05-09T04:55:13.530Z,4.43
2023-05-09T05:00:20.943Z,4.42
2023-05-09T05:05:28.320Z,4.95
2023-05-09T05:10:35.595Z,4.88
2023-05-09T05:15:42.752Z,4.51
2023-05-09T05:20:50.437Z,5.09
2023-05-09T05:25:57.624Z,4.09
2023-05-09T05:31:05.059Z,4.52
2023-05-09T05:36:12.237Z,4.41
2023-05-09T05:41:19.595Z,4.21
2023-05-09T05:46:26.920Z,4.18
2023-05-09T05:51:34.274Z,3.73
2023-05-09T05:56:41.418Z,3.81
2023-05-09T06:01:48.936Z,4.16
2023-05-09T06:06:56.098Z,5.81
2023-05-09T06:12:03.483Z,4.61
2023-05-09T06:17:11.010Z,4.35
2023-05-09T06:22:18.282Z,5.62
2023-05-09T06:27:25.518Z,5.61
2023-05-09T06:32:32.982Z,4.14
2023-05-09T06:37:40.236Z,4.02
2023-05-09T06:42:47.716Z,4.20
2023-05-09T06:47:54.962Z,4.35
2023-05-09T06:53:02.487Z,4.64
2023-05-09T06:58:09.694Z,4.18
2023-05-09T07:03:16.975Z,5.37
2023-05-09T07:08:24.204Z,4.87
2023-05-09T07:13:31.967Z,4.27
2023-05-09T07:18:39.423Z,4.17
2023-05-09T07:23:46.758Z,3.90
2023-05-09T07:28:53.928Z,3.91
2023-05-09T07:34:01.274Z,4.31
2023-05-09T07:39:08.562Z,4.00
2023-05-09T07:44:16.067Z,4.73
2023-05-09T07:49:25.529Z,4.09
2023-05-09T07:54:32.796Z,5.26
2023-05-09T07:59:44.608Z,4.38
2023-05-09T08:04:42.350Z,3.97
2023-05-09T08:09:49.498Z,4.29
2023-05-09T08:14:56.859Z,5.01
2023-05-09T08:20:04.109Z,4.12
2023-05-09T08:25:11.522Z,5.07
2023-05-09T08:30:19.712Z,4.17
2023-05-09T08:35:27.161Z,4.57
2023-05-09T08:40:34.449Z,4.39
2023-05-09T08:45:41.816Z,4.69
2023-05-09T08:50:49.061Z,4.09
2023-05-09T08:55:56.793Z,4.08
2023-05-09T09:01:04.051Z,3.98
2023-05-09T09:06:11.408Z,4.30
2023-05-09T09:11:18.673Z,4.82
2023-05-09T09:16:26.145Z,4.57
2023-05-09T09:21:33.370Z,4.90
2023-05-09T09:26:40.751Z,4.36
2023-05-09T09:31:48.130Z,4.81
2023-05-09T09:36:55.454Z,5.07
2023-05-09T09:42:02.809Z,4.80
2023-05-09T09:47:10.266Z,5.17
2023-05-09T09:52:17.489Z,4.83
2023-05-09T09:57:24.938Z,5.07
2023-05-09T10:02:32.260Z,5.28
2023-05-09T10:07:39.644Z,5.59
2023-05-09T10:17:51.528Z,5.74
2023-05-09T10:22:58.636Z,5.46
2023-05-09T10:28:06.134Z,5.90
2023-05-09T10:33:13.311Z,5.89
2023-05-09T10:38:20.615Z,6.03
2023-05-09T10:43:27.857Z,5.47
2023-05-09T10:48:35.162Z,5.42
2023-05-09T10:53:42.384Z,5.93
2023-05-09T10:58:49.819Z,5.45
2023-05-09T11:03:57.196Z,6.13
2023-05-09T11:09:04.511Z,5.92
2023-05-09T11:14:11.722Z,6.25
2023-05-09T11:19:19.014Z,6.10
2023-05-09T11:24:26.231Z,5.63
2023-05-09T11:29:33.563Z,6.02
2023-05-09T11:34:40.745Z,5.65
2023-05-09T11:39:48.036Z,5.24
2023-05-09T11:44:55.276Z,5.80
2023-05-09T11:50:02.622Z,5.93
2023-05-09T11:55:12.238Z,6.20
2023-05-09T12:00:16.971Z,5.74
2023-05-09T12:05:24.226Z,5.56
2023-05-09T12:10:31.687Z,6.30
2023-05-09T12:15:39.622Z,5.74
2023-05-09T12:20:46.896Z,5.93
2023-05-09T12:25:54.196Z,5.39
2023-05-09T12:31:01.686Z,5.48
2023-05-09T12:36:08.843Z,5.37
2023-05-09T12:41:30.927Z,5.01
2023-05-09T12:46:23.205Z,4.69
2023-05-09T12:51:30.532Z,4.77
2023-05-09T12:56:37.940Z,4.38
2023-05-09T13:01:45.407Z,4.28
2023-05-09T13:06:52.675Z,3.58
2023-05-09T13:12:00.139Z,3.50
2023-05-09T13:17:07.505Z,3.53
2023-05-09T13:22:14.838Z,3.98
2023-05-09T13:27:22.122Z,3.38
2023-05-09T13:32:29.680Z,3.57
2023-05-09T13:37:36.870Z,3.55
2023-05-09T13:42:44.217Z,3.20
2023-05-09T13:47:51.533Z,3.24
2023-05-09T13:52:58.937Z,3.41
2023-05-09T13:58:06.158Z,3.25
2023-05-09T14:03:13.498Z,3.32
2023-05-09T14:08:20.801Z,3.15
2023-05-09T14:13:28.233Z,3.54
2023-05-09T14:18:35.249Z,3.53
2023-05-09T14:23:42.952Z,3.03
2023-05-09T14:28:50.448Z,3.25
2023-05-09T14:33:57.851Z,3.32
2023-05-09T14:39:05.206Z,3.13
2023-05-09T14:44:12.652Z,3.82
2023-05-09T14:49:19.952Z,3.40
2023-05-09T14:54:27.348Z,3.10
2023-05-09T14:59:36.886Z,3.08
2023-05-09T15:04:41.503Z,2.83
2023-05-09T15:09:48.795Z,3.32
2023-05-09T15:14:56.206Z,2.76
2023-05-09T15:20:03.412Z,3.04
2023-05-09T15:25:10.879Z,2.98
2023-05-09T15:30:18.432Z,2.91
2023-05-09T15:35:25.641Z,3.07
2023-05-09T15:40:32.914Z,2.89
2023-05-09T15:45:40.247Z,3.68
2023-05-09T15:50:47.486Z,3.32
2023-05-09T15:55:54.856Z,3.18
2023-05-09T16:01:02.127Z,3.33
2023-05-09T16:06:09.474Z,3.16
2023-05-09T16:11:16.742Z,2.98
2023-05-09T16:16:24.142Z,3.55
2023-05-09T16:21:31.381Z,3.16
2023-05-09T16:26:38.643Z,3.24
2023-05-09T16:31:45.901Z,3.17
2023-05-09T16:36:53.261Z,3.25
2023-05-09T16:42:00.471Z,3.07
2023-05-09T16:47:07.744Z,2.99
2023-05-09T16:52:14.953Z,3.64
2023-05-09T16:57:22.423Z,3.19
2023-05-09T17:02:29.733Z,2.89
2023-05-09T17:07:37.067Z,3.34
2023-05-09T17:12:44.409Z,3.15
2023-05-09T17:17:51.729Z,3.41
2023-05-09T17:22:59.143Z,3.43
2023-05-09T17:28:06.718Z,3.38
2023-05-09T17:33:08.885Z,3.32
2023-05-09T17:38:16.276Z,3.41
2023-05-09T17:43:23.523Z,3.29
2023-05-09T17:48:31.015Z,3.22
2023-05-09T17:53:38.286Z,3.67
2023-05-09T17:58:46.993Z,3.61
2023-05-09T18:03:48.777Z,3.42
2023-05-09T18:08:59.058Z,3.16
2023-05-09T18:13:56.253Z,3.35
2023-05-09T18:19:03.982Z,3.70
2023-05-09T18:24:11.347Z,3.56
2023-05-09T18:29:19.818Z,3.64
2023-05-09T18:34:27.125Z,3.36
2023-05-09T18:39:34.599Z,3.19
2023-05-09T18:44:42.007Z,3.48
2023-05-09T18:49:49.365Z,3.28
2023-05-09T18:54:56.658Z,3.69
2023-05-09T19:00:04.111Z,3.60
2023-05-09T19:05:11.628Z,3.65
2023-05-09T19:10:19.161Z,3.86
2023-05-09T19:15:26.492Z,3.86
2023-05-09T19:20:34.095Z,3.79
2023-05-09T19:25:41.476Z,3.56
2023-05-09T19:30:49.030Z,3.52
2023-05-09T19:35:56.347Z,3.73
2023-05-09T19:41:03.771Z,4.11
2023-05-09T19:46:11.146Z,3.79
2023-05-09T19:51:18.438Z,3.82
2023-05-09T19:56:25.631Z,3.63
2023-05-09T20:01:33.104Z,3.74
2023-05-09T20:06:40.413Z,4.15
2023-05-09T20:11:47.776Z,3.82
2023-05-09T20:16:55.111Z,4.03
2023-05-09T20:22:02.798Z,4.27
2023-05-09T20:27:10.281Z,3.88
2023-05-09T20:32:17.731Z,4.46
2023-05-09T20:37:25.051Z,3.96
2023-05-09T20:42:32.554Z,3.79
2023-05-09T20:47:39.908Z,4.53
2023-05-09T20:52:47.299Z,3.98
2023-05-09T20:57:54.802Z,3.57
2023-05-09T21:03:02.386Z,4.07
2023-05-09T21:08:09.585Z,3.78
2023-05-09T21:13:17.157Z,4.15
2023-05-09T21:18:24.382Z,4.24
2023-05-09T21:23:31.960Z,4.17
2023-05-09T21:28:39.367Z,4.18
2023-05-09T21:33:46.772Z,4.37
2023-05-09T21:38:54.206Z,4.31
2023-05-09T21:44:02.186Z,4.52
2023-05-09T21:49:09.554Z,4.60
2023-05-09T21:54:17.100Z,4.39
2023-05-09T21:59:24.620Z,4.76
2023-05-09T22:04:32.076Z,4.58
2023-05-09T22:09:39.504Z,4.49
2023-05-09T22:14:55.932Z,3.65
2023-05-09T22:19:53.689Z,5.08
2023-05-09T22:25:01.102Z,4.50
2023-05-09T22:30:08.449Z,4.39
2023-05-09T22:35:15.906Z,4.55
2023-05-09T22:40:23.150Z,4.37
2023-05-09T22:45:30.571Z,4.42
2023-05-09T22:50:37.870Z,4.15
2023-05-09T22:55:45.223Z,4.65
2023-05-09T23:00:52.511Z,4.12
2023-05-09T23:05:59.786Z,3.98
2023-05-09T23:11:07.006Z,4.32
2023-05-09T23:16:14.584Z,4.19
2023-05-09T23:21:21.751Z,4.49
2023-05-09T23:26:29.194Z,4.33
2023-05-09T23:31:36.538Z,4.35
2023-05-09T23:36:43.884Z,4.46
2023-05-09T23:41:51.216Z,4.53
2023-05-09T23:46:58.744Z,4.85
2023-05-09T23:52:05.910Z,4.36
2023-05-09T23:57:13.418Z,4.86
